sensor_id;sensor_type;location;lat;lon;timestamp;P1;durP1;ratioP1;P2;durP2;ratioP2
10461;SDS011;5278;42.656;23.374;2024-02-26T00:01:02;12.00;;;7.90;;
10461;SDS011;5278;42.656;23.374;2024-02-26T00:03:29;8.70;;;7.33;;
10461;SDS011;5278;42.656;23.374;2024-02-26T00:05:59;10.60;;;8.33;;
10461;SDS011;5278;42.656;23.374;2024-02-26T00:08:25;10.63;;;7.70;;
10461;SDS011;5278;42.656;23.374;2024-02-26T00:10:52;12.23;;;8.63;;
10461;SDS011;5278;42.656;23.374;2024-02-26T00:13:18;9.83;;;8.03;;
10461;SDS011;5278;42.656;23.374;2024-02-26T00:15:45;10.43;;;8.63;;
10461;SDS011;5278;42.656;23.374;2024-02-26T00:18:12;10.33;;;7.97;;
10461;SDS011;5278;42.656;23.374;2024-02-26T00:20:38;10.77;;;8.00;;
10461;SDS011;5278;42.656;23.374;2024-02-26T00:23:09;10.03;;;8.00;;
10461;SDS011;5278;42.656;23.374;2024-02-26T00:25:36;11.50;;;7.97;;
10461;SDS011;5278;42.656;23.374;2024-02-26T00:28:04;11.10;;;8.23;;
10461;SDS011;5278;42.656;23.374;2024-02-26T00:30:31;12.73;;;9.20;;
10461;SDS011;5278;42.656;23.374;2024-02-26T00:32:57;12.83;;;8.97;;
10461;SDS011;5278;42.656;23.374;2024-02-26T00:35:35;12.20;;;8.53;;
10461;SDS011;5278;42.656;23.374;2024-02-26T00:38:01;11.33;;;9.37;;
10461;SDS011;5278;42.656;23.374;2024-02-26T00:40:30;14.47;;;9.70;;
10461;SDS011;5278;42.656;23.374;2024-02-26T00:42:57;13.20;;;9.23;;
10461;SDS011;5278;42.656;23.374;2024-02-26T00:45:24;12.37;;;10.03;;
10461;SDS011;5278;42.656;23.374;2024-02-26T00:47:50;14.13;;;8.67;;
10461;SDS011;5278;42.656;23.374;2024-02-26T00:50:17;15.87;;;10.57;;
10461;SDS011;5278;42.656;23.374;2024-02-26T00:52:44;9.03;;;7.37;;
10461;SDS011;5278;42.656;23.374;2024-02-26T00:55:10;8.83;;;6.10;;
10461;SDS011;5278;42.656;23.374;2024-02-26T00:57:38;11.43;;;7.13;;
10461;SDS011;5278;42.656;23.374;2024-02-26T01:00:06;13.77;;;7.70;;
10461;SDS011;5278;42.656;23.374;2024-02-26T01:02:33;7.87;;;6.40;;
10461;SDS011;5278;42.656;23.374;2024-02-26T01:05:00;10.40;;;7.47;;
10461;SDS011;5278;42.656;23.374;2024-02-26T01:07:27;10.33;;;7.87;;
10461;SDS011;5278;42.656;23.374;2024-02-26T01:09:58;12.50;;;8.23;;
10461;SDS011;5278;42.656;23.374;2024-02-26T01:12:25;9.40;;;7.93;;
10461;SDS011;5278;42.656;23.374;2024-02-26T01:14:53;8.77;;;7.87;;
10461;SDS011;5278;42.656;23.374;2024-02-26T01:17:19;12.80;;;8.70;;
10461;SDS011;5278;42.656;23.374;2024-02-26T01:19:46;9.67;;;8.57;;
10461;SDS011;5278;42.656;23.374;2024-02-26T01:22:13;13.77;;;9.33;;
10461;SDS011;5278;42.656;23.374;2024-02-26T01:24:39;12.37;;;9.03;;
10461;SDS011;5278;42.656;23.374;2024-02-26T01:27:06;12.10;;;9.33;;
10461;SDS011;5278;42.656;23.374;2024-02-26T01:29:34;11.97;;;8.60;;
10461;SDS011;5278;42.656;23.374;2024-02-26T01:32:02;14.00;;;9.53;;
10461;SDS011;5278;42.656;23.374;2024-02-26T01:34:30;11.80;;;9.40;;
10461;SDS011;5278;42.656;23.374;2024-02-26T01:36:56;14.97;;;8.97;;
10461;SDS011;5278;42.656;23.374;2024-02-26T01:39:23;11.03;;;8.97;;
10461;SDS011;5278;42.656;23.374;2024-02-26T01:41:50;12.23;;;9.10;;
10461;SDS011;5278;42.656;23.374;2024-02-26T01:44:17;11.17;;;9.37;;
10461;SDS011;5278;42.656;23.374;2024-02-26T01:46:43;13.40;;;9.77;;
10461;SDS011;5278;42.656;23.374;2024-02-26T01:49:12;13.83;;;9.90;;
10461;SDS011;5278;42.656;23.374;2024-02-26T01:51:39;12.97;;;9.90;;
10461;SDS011;5278;42.656;23.374;2024-02-26T01:54:07;17.23;;;9.33;;
10461;SDS011;5278;42.656;23.374;2024-02-26T01:56:34;15.53;;;9.73;;
10461;SDS011;5278;42.656;23.374;2024-02-26T01:59:02;15.97;;;10.23;;
10461;SDS011;5278;42.656;23.374;2024-02-26T02:01:31;15.30;;;9.70;;
10461;SDS011;5278;42.656;23.374;2024-02-26T02:04:00;12.30;;;9.73;;
10461;SDS011;5278;42.656;23.374;2024-02-26T02:06:28;16.77;;;11.93;;
10461;SDS011;5278;42.656;23.374;2024-02-26T02:08:55;15.53;;;11.70;;
10461;SDS011;5278;42.656;23.374;2024-02-26T02:11:23;18.00;;;11.97;;
10461;SDS011;5278;42.656;23.374;2024-02-26T02:13:50;15.50;;;11.83;;
10461;SDS011;5278;42.656;23.374;2024-02-26T02:16:16;17.00;;;11.13;;
10461;SDS011;5278;42.656;23.374;2024-02-26T02:18:43;17.80;;;11.47;;
10461;SDS011;5278;42.656;23.374;2024-02-26T02:21:11;18.43;;;12.17;;
10461;SDS011;5278;42.656;23.374;2024-02-26T02:23:38;17.47;;;12.10;;
10461;SDS011;5278;42.656;23.374;2024-02-26T02:26:05;14.20;;;10.83;;
10461;SDS011;5278;42.656;23.374;2024-02-26T02:28:32;18.93;;;12.13;;
10461;SDS011;5278;42.656;23.374;2024-02-26T02:30:59;16.77;;;12.70;;
10461;SDS011;5278;42.656;23.374;2024-02-26T02:33:26;20.43;;;13.93;;
10461;SDS011;5278;42.656;23.374;2024-02-26T02:35:52;27.33;;;15.23;;
10461;SDS011;5278;42.656;23.374;2024-02-26T02:38:21;26.47;;;15.57;;
10461;SDS011;5278;42.656;23.374;2024-02-26T02:40:51;22.97;;;14.47;;
10461;SDS011;5278;42.656;23.374;2024-02-26T02:43:17;23.27;;;15.30;;
10461;SDS011;5278;42.656;23.374;2024-02-26T02:45:44;23.10;;;15.33;;
10461;SDS011;5278;42.656;23.374;2024-02-26T02:48:11;23.47;;;13.97;;
10461;SDS011;5278;42.656;23.374;2024-02-26T02:50:38;20.17;;;13.87;;
10461;SDS011;5278;42.656;23.374;2024-02-26T02:53:04;20.60;;;13.10;;
10461;SDS011;5278;42.656;23.374;2024-02-26T02:55:33;18.77;;;13.37;;
10461;SDS011;5278;42.656;23.374;2024-02-26T02:57:59;15.73;;;11.17;;
10461;SDS011;5278;42.656;23.374;2024-02-26T03:00:26;13.33;;;10.37;;
10461;SDS011;5278;42.656;23.374;2024-02-26T03:02:53;15.20;;;10.93;;
10461;SDS011;5278;42.656;23.374;2024-02-26T03:05:19;13.57;;;11.20;;
10461;SDS011;5278;42.656;23.374;2024-02-26T03:07:46;20.87;;;12.53;;
10461;SDS011;5278;42.656;23.374;2024-02-26T03:10:13;18.43;;;13.13;;
10461;SDS011;5278;42.656;23.374;2024-02-26T03:12:41;22.67;;;13.20;;
10461;SDS011;5278;42.656;23.374;2024-02-26T03:15:08;21.67;;;13.63;;
10461;SDS011;5278;42.656;23.374;2024-02-26T03:17:36;15.40;;;12.27;;
10461;SDS011;5278;42.656;23.374;2024-02-26T03:20:04;18.13;;;12.23;;
10461;SDS011;5278;42.656;23.374;2024-02-26T03:22:33;17.07;;;12.40;;
10461;SDS011;5278;42.656;23.374;2024-02-26T03:25:00;18.57;;;12.67;;
10461;SDS011;5278;42.656;23.374;2024-02-26T03:27:27;17.23;;;11.80;;
10461;SDS011;5278;42.656;23.374;2024-02-26T03:29:55;18.07;;;12.07;;
10461;SDS011;5278;42.656;23.374;2024-02-26T03:32:21;18.77;;;12.40;;
10461;SDS011;5278;42.656;23.374;2024-02-26T03:34:49;18.53;;;11.90;;
10461;SDS011;5278;42.656;23.374;2024-02-26T03:37:19;20.43;;;12.73;;
10461;SDS011;5278;42.656;23.374;2024-02-26T03:39:46;17.13;;;12.93;;
10461;SDS011;5278;42.656;23.374;2024-02-26T03:42:12;16.30;;;12.17;;
10461;SDS011;5278;42.656;23.374;2024-02-26T03:44:39;15.47;;;12.27;;
10461;SDS011;5278;42.656;23.374;2024-02-26T03:47:07;17.03;;;13.03;;
10461;SDS011;5278;42.656;23.374;2024-02-26T03:49:33;17.67;;;12.33;;
10461;SDS011;5278;42.656;23.374;2024-02-26T03:52:00;17.67;;;12.53;;
10461;SDS011;5278;42.656;23.374;2024-02-26T03:54:27;19.37;;;13.20;;
10461;SDS011;5278;42.656;23.374;2024-02-26T03:56:53;20.77;;;12.43;;
10461;SDS011;5278;42.656;23.374;2024-02-26T03:59:20;18.33;;;12.30;;
10461;SDS011;5278;42.656;23.374;2024-02-26T04:01:49;19.67;;;13.40;;
10461;SDS011;5278;42.656;23.374;2024-02-26T04:04:17;20.53;;;13.63;;
10461;SDS011;5278;42.656;23.374;2024-02-26T04:06:44;20.37;;;12.83;;
10461;SDS011;5278;42.656;23.374;2024-02-26T04:09:13;20.03;;;13.10;;
10461;SDS011;5278;42.656;23.374;2024-02-26T04:11:40;20.33;;;12.13;;
10461;SDS011;5278;42.656;23.374;2024-02-26T04:14:08;19.33;;;14.23;;
10461;SDS011;5278;42.656;23.374;2024-02-26T04:16:36;22.23;;;12.07;;
10461;SDS011;5278;42.656;23.374;2024-02-26T04:19:03;14.37;;;10.97;;
10461;SDS011;5278;42.656;23.374;2024-02-26T04:21:31;11.83;;;8.73;;
10461;SDS011;5278;42.656;23.374;2024-02-26T04:23:58;10.73;;;8.37;;
10461;SDS011;5278;42.656;23.374;2024-02-26T04:26:26;12.10;;;8.90;;
10461;SDS011;5278;42.656;23.374;2024-02-26T04:28:53;11.47;;;8.70;;
10461;SDS011;5278;42.656;23.374;2024-02-26T04:31:20;10.47;;;8.83;;
10461;SDS011;5278;42.656;23.374;2024-02-26T04:33:46;9.97;;;8.13;;
10461;SDS011;5278;42.656;23.374;2024-02-26T04:36:13;11.67;;;8.47;;
10461;SDS011;5278;42.656;23.374;2024-02-26T04:38:42;13.07;;;9.00;;
10461;SDS011;5278;42.656;23.374;2024-02-26T04:41:09;12.23;;;8.40;;
10461;SDS011;5278;42.656;23.374;2024-02-26T04:43:36;9.77;;;8.13;;
10461;SDS011;5278;42.656;23.374;2024-02-26T04:46:06;9.17;;;7.30;;
10461;SDS011;5278;42.656;23.374;2024-02-26T04:48:33;12.90;;;9.10;;
10461;SDS011;5278;42.656;23.374;2024-02-26T04:51:00;12.13;;;8.83;;
10461;SDS011;5278;42.656;23.374;2024-02-26T04:53:27;13.67;;;9.50;;
10461;SDS011;5278;42.656;23.374;2024-02-26T04:55:55;12.73;;;9.37;;
10461;SDS011;5278;42.656;23.374;2024-02-26T04:58:21;13.33;;;9.80;;
10461;SDS011;5278;42.656;23.374;2024-02-26T05:00:48;13.03;;;10.20;;
10461;SDS011;5278;42.656;23.374;2024-02-26T05:03:15;14.07;;;10.80;;
10461;SDS011;5278;42.656;23.374;2024-02-26T05:05:42;16.47;;;11.57;;
10461;SDS011;5278;42.656;23.374;2024-02-26T05:08:09;21.23;;;13.23;;
10461;SDS011;5278;42.656;23.374;2024-02-26T05:10:36;22.30;;;15.23;;
10461;SDS011;5278;42.656;23.374;2024-02-26T05:13:07;21.43;;;16.93;;
10461;SDS011;5278;42.656;23.374;2024-02-26T05:15:34;24.60;;;16.37;;
10461;SDS011;5278;42.656;23.374;2024-02-26T05:18:00;23.97;;;16.27;;
10461;SDS011;5278;42.656;23.374;2024-02-26T05:20:27;23.03;;;15.57;;
10461;SDS011;5278;42.656;23.374;2024-02-26T05:22:54;20.43;;;13.10;;
10461;SDS011;5278;42.656;23.374;2024-02-26T05:25:20;19.53;;;14.93;;
10461;SDS011;5278;42.656;23.374;2024-02-26T05:27:47;22.23;;;15.60;;
10461;SDS011;5278;42.656;23.374;2024-02-26T05:30:15;22.17;;;15.37;;
10461;SDS011;5278;42.656;23.374;2024-02-26T05:32:42;22.60;;;15.30;;
10461;SDS011;5278;42.656;23.374;2024-02-26T05:35:09;24.77;;;16.70;;
10461;SDS011;5278;42.656;23.374;2024-02-26T05:37:35;26.57;;;17.03;;
10461;SDS011;5278;42.656;23.374;2024-02-26T05:40:02;26.20;;;19.77;;
10461;SDS011;5278;42.656;23.374;2024-02-26T05:42:30;26.57;;;18.60;;
10461;SDS011;5278;42.656;23.374;2024-02-26T05:44:57;28.27;;;19.97;;
10461;SDS011;5278;42.656;23.374;2024-02-26T05:47:25;28.07;;;21.03;;
10461;SDS011;5278;42.656;23.374;2024-02-26T05:49:51;29.40;;;19.53;;
10461;SDS011;5278;42.656;23.374;2024-02-26T05:52:18;26.57;;;18.93;;
10461;SDS011;5278;42.656;23.374;2024-02-26T05:54:45;32.97;;;20.37;;
10461;SDS011;5278;42.656;23.374;2024-02-26T05:57:12;27.50;;;19.97;;
10461;SDS011;5278;42.656;23.374;2024-02-26T05:59:38;28.07;;;19.33;;
10461;SDS011;5278;42.656;23.374;2024-02-26T06:02:05;27.73;;;20.17;;
10461;SDS011;5278;42.656;23.374;2024-02-26T06:04:33;25.93;;;19.27;;
10461;SDS011;5278;42.656;23.374;2024-02-26T06:07:00;25.97;;;16.90;;
10461;SDS011;5278;42.656;23.374;2024-02-26T06:09:26;26.97;;;16.40;;
10461;SDS011;5278;42.656;23.374;2024-02-26T06:11:53;24.37;;;17.53;;
10461;SDS011;5278;42.656;23.374;2024-02-26T06:14:20;24.73;;;16.87;;
10461;SDS011;5278;42.656;23.374;2024-02-26T06:16:46;19.70;;;13.67;;
10461;SDS011;5278;42.656;23.374;2024-02-26T06:19:13;22.30;;;14.03;;
10461;SDS011;5278;42.656;23.374;2024-02-26T06:21:41;17.07;;;12.87;;
10461;SDS011;5278;42.656;23.374;2024-02-26T06:24:08;17.17;;;11.20;;
10461;SDS011;5278;42.656;23.374;2024-02-26T06:26:34;19.17;;;12.90;;
10461;SDS011;5278;42.656;23.374;2024-02-26T06:29:01;25.57;;;17.53;;
10461;SDS011;5278;42.656;23.374;2024-02-26T06:31:28;16.07;;;11.50;;
10461;SDS011;5278;42.656;23.374;2024-02-26T06:33:54;19.57;;;13.47;;
10461;SDS011;5278;42.656;23.374;2024-02-26T06:36:21;20.87;;;14.93;;
10461;SDS011;5278;42.656;23.374;2024-02-26T06:38:49;19.47;;;12.97;;
10461;SDS011;5278;42.656;23.374;2024-02-26T06:41:17;25.73;;;16.03;;
10461;SDS011;5278;42.656;23.374;2024-02-26T06:43:43;20.17;;;13.03;;
10461;SDS011;5278;42.656;23.374;2024-02-26T06:46:10;22.10;;;15.10;;
10461;SDS011;5278;42.656;23.374;2024-02-26T06:48:37;17.57;;;11.27;;
10461;SDS011;5278;42.656;23.374;2024-02-26T06:51:03;18.27;;;11.27;;
10461;SDS011;5278;42.656;23.374;2024-02-26T06:53:30;14.50;;;9.80;;
10461;SDS011;5278;42.656;23.374;2024-02-26T06:55:58;16.53;;;10.43;;
10461;SDS011;5278;42.656;23.374;2024-02-26T06:58:25;15.97;;;10.07;;
10461;SDS011;5278;42.656;23.374;2024-02-26T07:00:52;14.53;;;10.03;;
10461;SDS011;5278;42.656;23.374;2024-02-26T07:03:18;16.63;;;11.43;;
10461;SDS011;5278;42.656;23.374;2024-02-26T07:05:45;18.00;;;10.90;;
10461;SDS011;5278;42.656;23.374;2024-02-26T07:08:12;16.43;;;11.23;;
10461;SDS011;5278;42.656;23.374;2024-02-26T07:10:38;16.87;;;11.97;;
10461;SDS011;5278;42.656;23.374;2024-02-26T07:13:06;14.70;;;10.57;;
10461;SDS011;5278;42.656;23.374;2024-02-26T07:15:33;15.57;;;10.90;;
10461;SDS011;5278;42.656;23.374;2024-02-26T07:18:00;19.03;;;11.10;;
10461;SDS011;5278;42.656;23.374;2024-02-26T07:20:28;20.00;;;12.43;;
10461;SDS011;5278;42.656;23.374;2024-02-26T07:22:55;12.40;;;9.70;;
10461;SDS011;5278;42.656;23.374;2024-02-26T07:25:22;11.23;;;8.33;;
10461;SDS011;5278;42.656;23.374;2024-02-26T07:27:49;18.80;;;11.10;;
10461;SDS011;5278;42.656;23.374;2024-02-26T07:30:17;18.40;;;12.80;;
10461;SDS011;5278;42.656;23.374;2024-02-26T07:32:44;16.37;;;12.07;;
10461;SDS011;5278;42.656;23.374;2024-02-26T07:35:11;21.47;;;13.60;;
10461;SDS011;5278;42.656;23.374;2024-02-26T07:37:38;20.23;;;12.90;;
10461;SDS011;5278;42.656;23.374;2024-02-26T07:40:05;15.77;;;10.77;;
10461;SDS011;5278;42.656;23.374;2024-02-26T07:42:33;12.70;;;9.07;;
10461;SDS011;5278;42.656;23.374;2024-02-26T07:45:00;15.93;;;8.43;;
10461;SDS011;5278;42.656;23.374;2024-02-26T07:47:28;23.73;;;11.03;;
10461;SDS011;5278;42.656;23.374;2024-02-26T07:49:55;17.47;;;9.63;;
10461;SDS011;5278;42.656;23.374;2024-02-26T07:52:21;16.40;;;11.13;;
10461;SDS011;5278;42.656;23.374;2024-02-26T07:54:48;16.57;;;10.33;;
10461;SDS011;5278;42.656;23.374;2024-02-26T07:57:14;15.97;;;10.30;;
10461;SDS011;5278;42.656;23.374;2024-02-26T07:59:42;17.50;;;10.77;;
10461;SDS011;5278;42.656;23.374;2024-02-26T08:02:10;19.23;;;11.67;;
10461;SDS011;5278;42.656;23.374;2024-02-26T08:04:38;18.80;;;12.77;;
10461;SDS011;5278;42.656;23.374;2024-02-26T08:07:05;18.07;;;11.87;;
10461;SDS011;5278;42.656;23.374;2024-02-26T08:09:32;21.63;;;15.13;;
10461;SDS011;5278;42.656;23.374;2024-02-26T08:11:58;20.10;;;11.90;;
10461;SDS011;5278;42.656;23.374;2024-02-26T08:14:25;18.30;;;11.60;;
10461;SDS011;5278;42.656;23.374;2024-02-26T08:16:52;16.53;;;10.30;;
10461;SDS011;5278;42.656;23.374;2024-02-26T08:19:18;13.37;;;10.33;;
10461;SDS011;5278;42.656;23.374;2024-02-26T08:21:46;13.33;;;10.07;;
10461;SDS011;5278;42.656;23.374;2024-02-26T08:24:13;11.97;;;9.23;;
10461;SDS011;5278;42.656;23.374;2024-02-26T08:26:40;12.13;;;8.30;;
10461;SDS011;5278;42.656;23.374;2024-02-26T08:29:06;14.63;;;9.10;;
10461;SDS011;5278;42.656;23.374;2024-02-26T08:31:33;13.80;;;8.27;;
10461;SDS011;5278;42.656;23.374;2024-02-26T08:34:02;15.60;;;9.80;;
10461;SDS011;5278;42.656;23.374;2024-02-26T08:36:29;15.27;;;9.20;;
10461;SDS011;5278;42.656;23.374;2024-02-26T08:38:58;10.50;;;7.87;;
10461;SDS011;5278;42.656;23.374;2024-02-26T08:41:25;9.13;;;6.03;;
10461;SDS011;5278;42.656;23.374;2024-02-26T08:43:52;10.70;;;6.20;;
10461;SDS011;5278;42.656;23.374;2024-02-26T08:46:18;18.00;;;11.60;;
10461;SDS011;5278;42.656;23.374;2024-02-26T08:48:45;11.97;;;7.03;;
10461;SDS011;5278;42.656;23.374;2024-02-26T08:51:12;20.93;;;11.47;;
10461;SDS011;5278;42.656;23.374;2024-02-26T08:53:39;12.23;;;8.73;;
10461;SDS011;5278;42.656;23.374;2024-02-26T08:56:07;14.60;;;9.07;;
10461;SDS011;5278;42.656;23.374;2024-02-26T08:58:33;11.27;;;7.80;;
10461;SDS011;5278;42.656;23.374;2024-02-26T09:01:01;7.83;;;5.77;;
10461;SDS011;5278;42.656;23.374;2024-02-26T09:03:28;10.73;;;6.20;;
10461;SDS011;5278;42.656;23.374;2024-02-26T09:05:54;14.83;;;7.53;;
10461;SDS011;5278;42.656;23.374;2024-02-26T09:08:22;11.27;;;7.93;;
10461;SDS011;5278;42.656;23.374;2024-02-26T09:10:49;12.17;;;7.37;;
10461;SDS011;5278;42.656;23.374;2024-02-26T09:13:17;9.83;;;6.93;;
10461;SDS011;5278;42.656;23.374;2024-02-26T09:15:44;10.17;;;6.93;;
10461;SDS011;5278;42.656;23.374;2024-02-26T09:18:11;14.27;;;9.53;;
10461;SDS011;5278;42.656;23.374;2024-02-26T09:20:38;9.47;;;6.77;;
10461;SDS011;5278;42.656;23.374;2024-02-26T09:23:05;12.10;;;7.13;;
10461;SDS011;5278;42.656;23.374;2024-02-26T09:25:31;9.93;;;7.40;;
10461;SDS011;5278;42.656;23.374;2024-02-26T09:27:58;9.53;;;5.67;;
10461;SDS011;5278;42.656;23.374;2024-02-26T09:30:26;9.40;;;6.30;;
10461;SDS011;5278;42.656;23.374;2024-02-26T09:32:53;6.40;;;5.13;;
10461;SDS011;5278;42.656;23.374;2024-02-26T09:35:20;9.13;;;5.60;;
10461;SDS011;5278;42.656;23.374;2024-02-26T09:37:47;6.73;;;5.77;;
10461;SDS011;5278;42.656;23.374;2024-02-26T09:40:14;8.07;;;5.57;;
10461;SDS011;5278;42.656;23.374;2024-02-26T09:42:41;7.43;;;5.40;;
10461;SDS011;5278;42.656;23.374;2024-02-26T09:45:11;8.17;;;5.43;;
10461;SDS011;5278;42.656;23.374;2024-02-26T09:47:45;8.67;;;6.00;;
10461;SDS011;5278;42.656;23.374;2024-02-26T09:50:13;8.60;;;5.43;;
10461;SDS011;5278;42.656;23.374;2024-02-26T09:52:43;7.03;;;5.27;;
10461;SDS011;5278;42.656;23.374;2024-02-26T09:55:09;6.67;;;5.30;;
10461;SDS011;5278;42.656;23.374;2024-02-26T09:57:37;9.80;;;5.37;;
10461;SDS011;5278;42.656;23.374;2024-02-26T10:00:04;6.30;;;5.57;;
10461;SDS011;5278;42.656;23.374;2024-02-26T10:02:36;5.73;;;5.10;;
10461;SDS011;5278;42.656;23.374;2024-02-26T10:05:07;6.53;;;5.93;;
10461;SDS011;5278;42.656;23.374;2024-02-26T10:07:38;7.97;;;5.40;;
10461;SDS011;5278;42.656;23.374;2024-02-26T10:10:06;8.87;;;5.80;;
10461;SDS011;5278;42.656;23.374;2024-02-26T10:12:34;10.53;;;6.00;;
10461;SDS011;5278;42.656;23.374;2024-02-26T10:15:01;6.77;;;5.40;;
10461;SDS011;5278;42.656;23.374;2024-02-26T10:17:27;8.03;;;5.70;;
10461;SDS011;5278;42.656;23.374;2024-02-26T10:19:55;8.10;;;5.83;;
10461;SDS011;5278;42.656;23.374;2024-02-26T10:22:39;6.70;;;5.27;;
10461;SDS011;5278;42.656;23.374;2024-02-26T10:25:07;8.23;;;5.30;;
10461;SDS011;5278;42.656;23.374;2024-02-26T10:27:34;7.83;;;4.70;;
10461;SDS011;5278;42.656;23.374;2024-02-26T10:30:02;7.27;;;5.67;;
10461;SDS011;5278;42.656;23.374;2024-02-26T10:32:29;8.00;;;5.20;;
10461;SDS011;5278;42.656;23.374;2024-02-26T10:34:56;8.87;;;4.93;;
10461;SDS011;5278;42.656;23.374;2024-02-26T10:37:24;10.10;;;6.50;;
10461;SDS011;5278;42.656;23.374;2024-02-26T10:39:51;5.60;;;5.00;;
10461;SDS011;5278;42.656;23.374;2024-02-26T10:42:18;9.67;;;5.57;;
10461;SDS011;5278;42.656;23.374;2024-02-26T10:44:45;7.40;;;5.23;;
10461;SDS011;5278;42.656;23.374;2024-02-26T10:47:13;12.57;;;7.20;;
10461;SDS011;5278;42.656;23.374;2024-02-26T10:49:45;9.03;;;6.03;;
10461;SDS011;5278;42.656;23.374;2024-02-26T10:52:13;6.63;;;5.37;;
10461;SDS011;5278;42.656;23.374;2024-02-26T10:54:42;9.27;;;5.33;;
10461;SDS011;5278;42.656;23.374;2024-02-26T10:57:14;6.17;;;5.00;;
10461;SDS011;5278;42.656;23.374;2024-02-26T10:59:43;7.33;;;5.70;;
10461;SDS011;5278;42.656;23.374;2024-02-26T11:02:11;5.60;;;4.30;;
10461;SDS011;5278;42.656;23.374;2024-02-26T11:04:39;7.33;;;5.27;;
10461;SDS011;5278;42.656;23.374;2024-02-26T11:07:08;6.93;;;5.33;;
10461;SDS011;5278;42.656;23.374;2024-02-26T11:09:36;6.00;;;5.10;;
10461;SDS011;5278;42.656;23.374;2024-02-26T11:12:08;5.93;;;5.33;;
10461;SDS011;5278;42.656;23.374;2024-02-26T11:14:38;5.70;;;4.93;;
10461;SDS011;5278;42.656;23.374;2024-02-26T11:17:07;6.47;;;4.80;;
10461;SDS011;5278;42.656;23.374;2024-02-26T11:19:36;5.40;;;4.47;;
10461;SDS011;5278;42.656;23.374;2024-02-26T11:22:04;6.70;;;5.30;;
10461;SDS011;5278;42.656;23.374;2024-02-26T11:24:31;7.63;;;4.93;;
10461;SDS011;5278;42.656;23.374;2024-02-26T11:26:58;7.93;;;5.43;;
10461;SDS011;5278;42.656;23.374;2024-02-26T11:29:33;8.63;;;5.43;;
10461;SDS011;5278;42.656;23.374;2024-02-26T11:32:04;7.33;;;4.97;;
10461;SDS011;5278;42.656;23.374;2024-02-26T11:34:32;6.20;;;4.57;;
10461;SDS011;5278;42.656;23.374;2024-02-26T11:37:08;7.47;;;5.17;;
10461;SDS011;5278;42.656;23.374;2024-02-26T11:39:36;9.13;;;4.90;;
10461;SDS011;5278;42.656;23.374;2024-02-26T11:42:07;8.47;;;5.13;;
10461;SDS011;5278;42.656;23.374;2024-02-26T11:44:35;7.67;;;5.20;;
10461;SDS011;5278;42.656;23.374;2024-02-26T11:47:12;7.30;;;4.60;;
10461;SDS011;5278;42.656;23.374;2024-02-26T11:49:39;5.70;;;4.40;;
10461;SDS011;5278;42.656;23.374;2024-02-26T11:52:07;5.43;;;4.53;;
10461;SDS011;5278;42.656;23.374;2024-02-26T11:54:44;5.60;;;4.33;;
10461;SDS011;5278;42.656;23.374;2024-02-26T11:57:22;7.03;;;4.77;;
10461;SDS011;5278;42.656;23.374;2024-02-26T11:59:51;8.37;;;5.03;;
10461;SDS011;5278;42.656;23.374;2024-02-26T12:02:37;9.03;;;5.03;;
10461;SDS011;5278;42.656;23.374;2024-02-26T12:05:06;5.20;;;4.63;;
10461;SDS011;5278;42.656;23.374;2024-02-26T12:07:34;9.47;;;4.30;;
10461;SDS011;5278;42.656;23.374;2024-02-26T12:12:52;6.47;;;5.03;;
10461;SDS011;5278;42.656;23.374;2024-02-26T12:15:24;6.87;;;4.37;;
10461;SDS011;5278;42.656;23.374;2024-02-26T12:17:51;7.20;;;4.63;;
10461;SDS011;5278;42.656;23.374;2024-02-26T12:20:18;9.30;;;4.50;;
10461;SDS011;5278;42.656;23.374;2024-02-26T12:22:46;4.87;;;3.90;;
10461;SDS011;5278;42.656;23.374;2024-02-26T12:25:13;6.33;;;5.10;;
10461;SDS011;5278;42.656;23.374;2024-02-26T12:27:40;5.13;;;4.20;;
10461;SDS011;5278;42.656;23.374;2024-02-26T12:30:07;5.13;;;4.47;;
10461;SDS011;5278;42.656;23.374;2024-02-26T12:32:36;5.27;;;4.73;;
10461;SDS011;5278;42.656;23.374;2024-02-26T12:35:03;4.83;;;3.80;;
10461;SDS011;5278;42.656;23.374;2024-02-26T12:37:32;6.33;;;4.37;;
10461;SDS011;5278;42.656;23.374;2024-02-26T12:40:01;5.60;;;4.03;;
10461;SDS011;5278;42.656;23.374;2024-02-26T12:42:29;5.57;;;4.60;;
10461;SDS011;5278;42.656;23.374;2024-02-26T12:44:57;8.57;;;4.67;;
10461;SDS011;5278;42.656;23.374;2024-02-26T12:47:24;5.63;;;4.80;;
10461;SDS011;5278;42.656;23.374;2024-02-26T12:49:52;7.23;;;4.27;;
10461;SDS011;5278;42.656;23.374;2024-02-26T12:52:19;10.23;;;4.67;;
10461;SDS011;5278;42.656;23.374;2024-02-26T12:54:47;5.70;;;4.10;;
10461;SDS011;5278;42.656;23.374;2024-02-26T12:57:15;8.67;;;4.90;;
10461;SDS011;5278;42.656;23.374;2024-02-26T12:59:42;6.50;;;4.00;;
10461;SDS011;5278;42.656;23.374;2024-02-26T13:02:09;5.07;;;4.20;;
10461;SDS011;5278;42.656;23.374;2024-02-26T13:04:35;6.93;;;3.90;;
10461;SDS011;5278;42.656;23.374;2024-02-26T13:07:07;7.67;;;4.57;;
10461;SDS011;5278;42.656;23.374;2024-02-26T13:09:34;6.77;;;4.27;;
10461;SDS011;5278;42.656;23.374;2024-02-26T13:12:03;4.50;;;3.90;;
10461;SDS011;5278;42.656;23.374;2024-02-26T13:14:31;5.10;;;4.20;;
10461;SDS011;5278;42.656;23.374;2024-02-26T13:16:59;6.37;;;4.73;;
10461;SDS011;5278;42.656;23.374;2024-02-26T13:19:26;5.60;;;4.40;;
10461;SDS011;5278;42.656;23.374;2024-02-26T13:21:53;4.40;;;4.00;;
10461;SDS011;5278;42.656;23.374;2024-02-26T13:24:22;6.00;;;4.30;;
10461;SDS011;5278;42.656;23.374;2024-02-26T13:26:53;10.30;;;4.80;;
10461;SDS011;5278;42.656;23.374;2024-02-26T13:29:20;7.63;;;4.50;;
10461;SDS011;5278;42.656;23.374;2024-02-26T13:31:47;9.03;;;4.00;;
10461;SDS011;5278;42.656;23.374;2024-02-26T13:34:22;4.63;;;3.97;;
10461;SDS011;5278;42.656;23.374;2024-02-26T13:36:50;8.63;;;4.53;;
10461;SDS011;5278;42.656;23.374;2024-02-26T13:39:22;6.47;;;3.77;;
10461;SDS011;5278;42.656;23.374;2024-02-26T13:41:50;4.33;;;3.87;;
10461;SDS011;5278;42.656;23.374;2024-02-26T13:44:17;4.50;;;3.83;;
10461;SDS011;5278;42.656;23.374;2024-02-26T13:46:43;7.70;;;4.90;;
10461;SDS011;5278;42.656;23.374;2024-02-26T13:49:10;4.33;;;3.83;;
10461;SDS011;5278;42.656;23.374;2024-02-26T13:51:37;5.97;;;3.80;;
10461;SDS011;5278;42.656;23.374;2024-02-26T13:54:03;7.70;;;4.17;;
10461;SDS011;5278;42.656;23.374;2024-02-26T13:56:32;6.20;;;4.00;;
10461;SDS011;5278;42.656;23.374;2024-02-26T13:58:59;5.50;;;4.30;;
10461;SDS011;5278;42.656;23.374;2024-02-26T14:01:25;6.03;;;4.10;;
10461;SDS011;5278;42.656;23.374;2024-02-26T14:03:53;4.70;;;3.90;;
10461;SDS011;5278;42.656;23.374;2024-02-26T14:06:22;6.70;;;3.50;;
10461;SDS011;5278;42.656;23.374;2024-02-26T14:08:49;5.87;;;4.00;;
10461;SDS011;5278;42.656;23.374;2024-02-26T14:11:16;4.07;;;3.57;;
10461;SDS011;5278;42.656;23.374;2024-02-26T14:13:44;6.27;;;3.60;;
10461;SDS011;5278;42.656;23.374;2024-02-26T14:16:13;6.50;;;3.90;;
10461;SDS011;5278;42.656;23.374;2024-02-26T14:18:39;6.53;;;3.93;;
10461;SDS011;5278;42.656;23.374;2024-02-26T14:21:09;4.20;;;3.80;;
10461;SDS011;5278;42.656;23.374;2024-02-26T14:23:36;6.20;;;3.80;;
10461;SDS011;5278;42.656;23.374;2024-02-26T14:26:02;5.00;;;3.73;;
10461;SDS011;5278;42.656;23.374;2024-02-26T14:28:29;5.57;;;3.50;;
10461;SDS011;5278;42.656;23.374;2024-02-26T14:30:58;4.50;;;3.50;;
10461;SDS011;5278;42.656;23.374;2024-02-26T14:33:25;12.80;;;7.47;;
10461;SDS011;5278;42.656;23.374;2024-02-26T14:35:51;6.27;;;3.57;;
10461;SDS011;5278;42.656;23.374;2024-02-26T14:38:18;4.87;;;3.53;;